createdAt,value
2023-05-05T00:00:11.529Z,42.50
2023-05-05T00:01:10.642Z,42.49
2023-05-05T00:02:10.696Z,42.49
2023-05-05T00:03:11.753Z,42.50
2023-05-05T00:04:10.835Z,42.48
2023-05-05T00:05:10.775Z,42.45
2023-05-05T00:06:11.811Z,42.47
2023-05-05T00:07:10.805Z,42.47
2023-05-05T00:08:10.956Z,42.47
2023-05-05T00:09:10.882Z,42.49
2023-05-05T00:10:11.904Z,42.46
2023-05-05T00:11:10.956Z,42.48
2023-05-05T00:12:11.961Z,42.49
2023-05-05T00:13:11.014Z,42.49
2023-05-05T00:14:10.945Z,42.49
2023-05-05T00:15:10.987Z,42.48
2023-05-05T00:16:12.066Z,42.48
2023-05-05T00:17:12.264Z,42.46
2023-05-05T00:18:12.143Z,42.50
2023-05-05T00:19:12.158Z,42.51
2023-05-05T00:20:11.129Z,42.48
2023-05-05T00:21:11.137Z,42.47
2023-05-05T00:22:11.237Z,42.50
2023-05-05T00:23:11.305Z,42.49
2023-05-05T00:24:11.358Z,42.48
2023-05-05T00:25:11.374Z,42.48
2023-05-05T00:26:11.295Z,42.48
2023-05-05T00:27:11.328Z,42.51
2023-05-05T00:28:12.489Z,42.50
2023-05-05T00:29:11.400Z,42.49
2023-05-05T00:30:12.435Z,42.51
2023-05-05T00:31:12.566Z,42.51
2023-05-05T00:32:11.513Z,42.49
2023-05-05T00:33:12.559Z,42.51
2023-05-05T00:34:11.707Z,42.50
2023-05-05T00:35:12.629Z,42.47
2023-05-05T00:36:11.640Z,42.49
2023-05-05T00:37:11.679Z,42.47
2023-05-05T00:38:12.690Z,42.47
2023-05-05T00:39:12.717Z,42.48
2023-05-05T00:40:12.861Z,42.50
2023-05-05T00:41:11.879Z,42.48
2023-05-05T00:42:11.936Z,42.50
2023-05-05T00:43:11.948Z,42.48
2023-05-05T00:44:11.998Z,42.49
2023-05-05T00:45:12.014Z,42.46
2023-05-05T00:46:12.052Z,42.50
2023-05-05T00:47:11.978Z,42.48
2023-05-05T00:48:12.125Z,42.48
2023-05-05T00:49:12.064Z,42.48
2023-05-05T00:50:12.085Z,42.48
2023-05-05T00:51:12.169Z,42.48
2023-05-05T00:52:12.158Z,42.50
2023-05-05T00:53:13.297Z,42.50
2023-05-05T00:54:13.373Z,42.47
2023-05-05T00:55:12.254Z,42.48
2023-05-05T00:56:13.323Z,42.48
2023-05-05T00:57:13.442Z,42.47
2023-05-05T00:58:12.482Z,42.49
2023-05-05T00:59:12.425Z,42.49
2023-05-05T01:00:12.562Z,42.50
2023-05-05T01:01:12.585Z,42.50
2023-05-05T01:02:12.539Z,42.47
2023-05-05T01:03:13.749Z,42.49
2023-05-05T01:04:12.736Z,42.49
2023-05-05T01:05:12.699Z,42.49
2023-05-05T01:06:12.759Z,42.47
2023-05-05T01:07:12.833Z,42.47
2023-05-05T01:08:13.840Z,42.47
2023-05-05T01:09:12.889Z,42.47
2023-05-05T01:10:19.706Z,42.47
2023-05-05T01:11:13.817Z,42.51
2023-05-05T01:12:12.847Z,42.48
2023-05-05T01:13:13.858Z,42.45
2023-05-05T01:14:13.817Z,42.48
2023-05-05T01:15:13.879Z,42.51
2023-05-05T01:16:12.851Z,42.48
2023-05-05T01:17:12.787Z,42.46
2023-05-05T01:18:12.849Z,42.48
2023-05-05T01:19:12.775Z,42.45
2023-05-05T01:20:12.837Z,42.46
2023-05-05T01:21:12.757Z,42.47
2023-05-05T01:22:13.845Z,42.46
2023-05-05T01:23:13.742Z,42.46
2023-05-05T01:24:12.880Z,42.47
2023-05-05T01:25:13.035Z,42.45
2023-05-05T01:26:12.974Z,42.47
2023-05-05T01:27:12.896Z,42.46
2023-05-05T01:28:13.060Z,42.48
2023-05-05T01:29:13.021Z,42.46
2023-05-05T01:30:13.065Z,42.45
2023-05-05T01:31:13.083Z,42.46
2023-05-05T01:32:14.111Z,42.46
2023-05-05T01:33:14.167Z,42.43
2023-05-05T01:34:14.304Z,42.45
2023-05-05T01:35:13.337Z,42.47
2023-05-05T01:36:14.277Z,42.47
2023-05-05T01:37:13.364Z,42.47
2023-05-05T01:38:13.361Z,42.46
2023-05-05T01:39:14.418Z,42.45
2023-05-05T01:40:14.442Z,42.44
2023-05-05T01:41:14.551Z,42.46
2023-05-05T01:42:15.268Z,42.44
2023-05-05T01:43:13.562Z,42.45
2023-05-05T01:44:14.800Z,42.45
2023-05-05T01:45:13.732Z,42.44
2023-05-05T01:46:13.812Z,42.45
2023-05-05T01:47:14.798Z,42.45
2023-05-05T01:48:14.910Z,42.44
2023-05-05T01:49:13.845Z,42.45
2023-05-05T01:50:13.990Z,42.46
2023-05-05T01:51:14.036Z,42.46
2023-05-05T01:52:14.083Z,42.42
2023-05-05T01:53:14.033Z,42.43
2023-05-05T01:54:14.178Z,42.43
2023-05-05T01:55:14.139Z,42.45
2023-05-05T01:56:14.170Z,42.45
2023-05-05T01:57:14.301Z,42.45
2023-05-05T01:58:14.373Z,42.43
2023-05-05T01:59:15.455Z,42.42
2023-05-05T02:00:14.468Z,42.46
2023-05-05T02:01:14.530Z,42.42
2023-05-05T02:02:14.592Z,42.43
2023-05-05T02:03:14.684Z,42.44
2023-05-05T02:04:15.608Z,42.41
2023-05-05T02:05:15.722Z,42.43
2023-05-05T02:06:14.768Z,42.41
2023-05-05T02:07:14.712Z,42.41
2023-05-05T02:08:15.854Z,42.44
2023-05-05T02:09:14.832Z,42.44
2023-05-05T02:10:14.976Z,42.43
2023-05-05T02:11:14.968Z,42.44
2023-05-05T02:12:15.024Z,42.44
2023-05-05T02:13:15.265Z,42.42
2023-05-05T02:14:16.166Z,42.40
2023-05-05T02:15:15.190Z,42.39
2023-05-05T02:16:15.240Z,42.39
2023-05-05T02:17:15.208Z,42.42
2023-05-05T02:18:16.358Z,42.42
2023-05-05T02:19:15.303Z,42.42
2023-05-05T02:20:15.443Z,42.44
2023-05-05T02:21:16.484Z,42.42
2023-05-05T02:22:15.482Z,42.42
2023-05-05T02:23:15.524Z,42.40
2023-05-05T02:24:16.679Z,42.43
2023-05-05T02:25:15.733Z,42.42
2023-05-05T02:26:15.735Z,42.42
2023-05-05T02:27:15.842Z,42.42
2023-05-05T02:28:16.891Z,42.43
2023-05-05T02:29:15.825Z,42.41
2023-05-05T02:30:17.013Z,42.41
2023-05-05T02:31:16.018Z,42.40
2023-05-05T02:32:16.088Z,42.39
2023-05-05T02:33:16.113Z,42.45
2023-05-05T02:34:16.090Z,42.44
2023-05-05T02:35:17.241Z,42.41
2023-05-05T02:36:17.186Z,42.41
2023-05-05T02:37:17.272Z,42.42
2023-05-05T02:38:16.295Z,42.41
2023-05-05T02:39:16.388Z,42.40
2023-05-05T02:40:16.422Z,42.40
2023-05-05T02:41:17.481Z,42.43
2023-05-05T02:42:17.578Z,42.40
2023-05-05T02:43:17.071Z,42.39
2023-05-05T02:44:16.730Z,42.39
2023-05-05T02:45:17.713Z,42.39
2023-05-05T02:46:16.878Z,42.41
2023-05-05T02:47:16.909Z,42.41
2023-05-05T02:48:16.974Z,42.38
2023-05-05T02:49:17.098Z,42.42
2023-05-05T02:50:18.107Z,42.40
2023-05-05T02:51:17.101Z,42.39
2023-05-05T02:52:17.079Z,42.37
2023-05-05T02:53:17.218Z,42.39
2023-05-05T02:54:18.229Z,42.38
2023-05-05T02:55:18.340Z,42.38
2023-05-05T02:56:17.396Z,42.37
2023-05-05T02:57:18.426Z,42.36
2023-05-05T02:58:17.504Z,42.39
2023-05-05T02:59:17.552Z,42.39
2023-05-05T03:00:17.554Z,42.37
2023-05-05T03:01:17.702Z,42.40
2023-05-05T03:02:17.739Z,42.37
2023-05-05T03:03:17.965Z,42.39
2023-05-05T03:04:18.866Z,42.39
2023-05-05T03:05:17.828Z,42.39
2023-05-05T03:06:18.949Z,42.38
2023-05-05T03:07:18.025Z,42.37
2023-05-05T03:08:18.123Z,42.36
2023-05-05T03:09:18.185Z,42.37
2023-05-05T03:10:18.183Z,42.37
2023-05-05T03:11:19.174Z,42.37
2023-05-05T03:12:19.255Z,42.36
2023-05-05T03:13:19.295Z,42.37
2023-05-05T03:14:18.406Z,42.38
2023-05-05T03:15:19.453Z,42.37
2023-05-05T03:16:18.653Z,42.36
2023-05-05T03:17:18.607Z,42.37
2023-05-05T03:18:18.702Z,42.36
2023-05-05T03:19:18.703Z,42.37
2023-05-05T03:20:18.760Z,42.34
2023-05-05T03:21:18.903Z,42.37
2023-05-05T03:22:18.915Z,42.35
2023-05-05T03:23:19.957Z,42.35
2023-05-05T03:24:19.057Z,42.34
2023-05-05T03:25:19.116Z,42.33
2023-05-05T03:26:19.230Z,42.35
2023-05-05T03:27:19.149Z,42.35
2023-05-05T03:28:19.301Z,42.36
2023-05-05T03:29:20.346Z,42.36
2023-05-05T03:30:20.439Z,42.34
2023-05-05T03:31:19.416Z,42.35
2023-05-05T03:32:20.524Z,42.38
2023-05-05T03:33:20.571Z,42.35
2023-05-05T03:34:19.629Z,42.34
2023-05-05T03:35:20.791Z,42.34
2023-05-05T03:36:19.719Z,42.36
2023-05-05T03:37:19.772Z,42.35
2023-05-05T03:38:19.813Z,42.35
2023-05-05T03:39:20.882Z,42.34
2023-05-05T03:40:23.498Z,42.35
2023-05-05T03:41:20.942Z,42.34
2023-05-05T03:42:19.953Z,42.36
2023-05-05T03:43:19.933Z,42.34
2023-05-05T03:44:19.917Z,42.36
2023-05-05T03:45:20.960Z,42.31
2023-05-05T03:46:20.038Z,42.34
2023-05-05T03:47:19.976Z,42.32
2023-05-05T03:48:19.891Z,42.34
2023-05-05T03:49:20.941Z,42.34
2023-05-05T03:50:19.876Z,42.35
2023-05-05T03:51:20.016Z,42.34
2023-05-05T03:52:19.893Z,42.35
2023-05-05T03:53:20.864Z,42.32
2023-05-05T03:54:20.884Z,42.33
2023-05-05T03:55:20.856Z,42.32
2023-05-05T03:56:19.849Z,42.35
2023-05-05T03:57:20.824Z,42.34
2023-05-05T03:58:20.856Z,42.33
2023-05-05T03:59:19.838Z,42.33
2023-05-05T04:00:20.835Z,42.34
2023-05-05T04:01:20.809Z,42.33
2023-05-05T04:02:19.950Z,42.35
2023-05-05T04:03:19.934Z,42.31
2023-05-05T04:04:19.910Z,42.31
2023-05-05T04:05:19.801Z,42.31
2023-05-05T04:06:19.914Z,42.33
2023-05-05T04:07:20.010Z,42.29
2023-05-05T04:08:20.072Z,42.33
2023-05-05T04:09:20.044Z,42.31
2023-05-05T04:10:21.100Z,42.31
2023-05-05T04:11:21.242Z,42.28
2023-05-05T04:12:20.250Z,42.30
2023-05-05T04:13:20.366Z,42.31
2023-05-05T04:14:20.378Z,42.31
2023-05-05T04:15:21.405Z,42.28
2023-05-05T04:16:21.491Z,42.27
2023-05-05T04:17:20.505Z,42.28
2023-05-05T04:18:21.549Z,42.27
2023-05-05T04:19:21.643Z,42.29
2023-05-05T04:20:21.771Z,42.30
2023-05-05T04:21:21.738Z,42.30
2023-05-05T04:22:21.775Z,42.28
2023-05-05T04:23:20.923Z,42.26
2023-05-05T04:24:21.061Z,42.29
2023-05-05T04:25:21.936Z,42.31
2023-05-05T04:26:21.998Z,42.26
2023-05-05T04:27:22.035Z,42.29
2023-05-05T04:28:22.276Z,42.27
2023-05-05T04:29:21.138Z,42.28
2023-05-05T04:30:22.204Z,42.28
2023-05-05T04:31:22.348Z,42.29
2023-05-05T04:32:21.371Z,42.28
2023-05-05T04:33:22.363Z,42.28
2023-05-05T04:34:21.472Z,42.27
2023-05-05T04:35:22.559Z,42.28
2023-05-05T04:36:21.528Z,42.27
2023-05-05T04:37:22.688Z,42.25
2023-05-05T04:38:21.721Z,42.26
2023-05-05T04:39:21.745Z,42.28
2023-05-05T04:40:21.840Z,42.27
2023-05-05T04:41:22.894Z,42.25
2023-05-05T04:42:21.940Z,42.28
2023-05-05T04:43:22.968Z,42.29
2023-05-05T04:44:22.976Z,42.26
2023-05-05T04:45:23.130Z,42.29
2023-05-05T04:46:22.243Z,42.27
2023-05-05T04:47:23.229Z,42.29
2023-05-05T04:48:22.336Z,42.29
2023-05-05T04:49:22.278Z,42.27
2023-05-05T04:50:22.368Z,42.25
2023-05-05T04:51:22.464Z,42.26
2023-05-05T04:52:22.515Z,42.24
2023-05-05T04:53:23.551Z,42.25
2023-05-05T04:54:22.587Z,42.24
2023-05-05T04:55:23.554Z,42.27
2023-05-05T04:56:23.625Z,42.26
2023-05-05T04:57:22.686Z,42.29
2023-05-05T04:58:22.706Z,42.26
2023-05-05T04:59:23.825Z,42.24
2023-05-05T05:00:22.900Z,42.25
2023-05-05T05:01:22.904Z,42.23
2023-05-05T05:02:24.120Z,42.23
2023-05-05T05:03:24.066Z,42.20
2023-05-05T05:04:23.135Z,42.18
2023-05-05T05:05:23.135Z,42.20
2023-05-05T05:06:23.317Z,42.17
2023-05-05T05:07:23.308Z,42.18
2023-05-05T05:08:23.385Z,42.15
2023-05-05T05:09:23.417Z,42.18
2023-05-05T05:10:23.519Z,42.14
2023-05-05T05:11:23.522Z,42.12
2023-05-05T05:12:23.644Z,42.08
2023-05-05T05:13:24.707Z,42.10
2023-05-05T05:14:23.741Z,42.09
2023-05-05T05:15:23.739Z,42.07
2023-05-05T05:16:24.881Z,42.07
2023-05-05T05:17:23.952Z,42.04
2023-05-05T05:18:23.992Z,42.02
2023-05-05T05:19:23.959Z,42.05
2023-05-05T05:20:25.062Z,42.01
2023-05-05T05:21:24.067Z,42.05
2023-05-05T05:22:25.128Z,42.03
2023-05-05T05:23:24.185Z,42.04
2023-05-05T05:24:25.273Z,42.05
2023-05-05T05:25:24.259Z,42.00
2023-05-05T05:26:24.324Z,41.99
2023-05-05T05:27:24.381Z,42.06
2023-05-05T05:28:24.456Z,42.15
2023-05-05T05:29:24.468Z,42.11
2023-05-05T05:30:24.529Z,42.12
2023-05-05T05:31:25.645Z,42.08
2023-05-05T05:32:25.949Z,42.10
2023-05-05T05:33:24.732Z,42.12
2023-05-05T05:34:25.433Z,42.13
2023-05-05T05:35:24.771Z,42.11
2023-05-05T05:36:25.842Z,42.18
2023-05-05T05:37:24.912Z,42.19
2023-05-05T05:38:25.708Z,42.24
2023-05-05T05:39:26.317Z,42.24
2023-05-05T05:40:26.032Z,42.40
2023-05-05T05:41:25.317Z,42.45
2023-05-05T05:42:26.150Z,42.43
2023-05-05T05:43:25.386Z,42.40
2023-05-05T05:44:25.332Z,42.46
2023-05-05T05:45:25.571Z,42.53
2023-05-05T05:46:25.319Z,42.58
2023-05-05T05:47:26.279Z,42.54
2023-05-05T05:48:25.393Z,42.48
2023-05-05T05:49:26.675Z,42.52
2023-05-05T05:50:25.391Z,42.47
2023-05-05T05:51:25.575Z,42.41
2023-05-05T05:52:25.324Z,42.44
2023-05-05T05:53:27.013Z,42.50
2023-05-05T05:54:25.915Z,42.43
2023-05-05T05:55:25.646Z,42.33
2023-05-05T05:56:25.882Z,42.06
2023-05-05T05:57:25.813Z,41.59
2023-05-05T05:58:26.849Z,41.57
2023-05-05T05:59:25.954Z,41.71
2023-05-05T06:00:26.535Z,41.50
2023-05-05T06:01:25.989Z,41.70
2023-05-05T06:02:25.677Z,41.52
2023-05-05T06:03:26.038Z,41.61
2023-05-05T06:04:27.101Z,41.65
2023-05-05T06:05:26.995Z,41.49
2023-05-05T06:06:26.118Z,41.30
2023-05-05T06:07:25.968Z,41.37
2023-05-05T06:08:25.865Z,41.32
2023-05-05T06:09:25.817Z,41.16
2023-05-05T06:10:28.466Z,41.05
2023-05-05T06:11:26.842Z,41.10
2023-05-05T06:12:25.870Z,41.03
2023-05-05T06:13:25.844Z,40.84
2023-05-05T06:14:26.834Z,41.38
2023-05-05T06:15:25.847Z,40.88
2023-05-05T06:16:26.943Z,40.67
2023-05-05T06:17:27.365Z,41.09
2023-05-05T06:18:25.850Z,40.89
2023-05-05T06:19:25.765Z,41.01
2023-05-05T06:20:25.818Z,41.05
2023-05-05T06:21:25.784Z,40.86
2023-05-05T06:22:25.762Z,40.97
2023-05-05T06:23:25.769Z,40.92
2023-05-05T06:24:26.087Z,40.69
2023-05-05T06:25:25.737Z,40.92
2023-05-05T06:26:26.713Z,40.91
2023-05-05T06:27:26.794Z,40.87
2023-05-05T06:28:25.775Z,40.85
2023-05-05T06:29:25.806Z,40.89
2023-05-05T06:30:26.225Z,40.91
2023-05-05T06:31:26.024Z,40.80
2023-05-05T06:32:26.280Z,41.00
2023-05-05T06:33:26.970Z,41.09
2023-05-05T06:34:25.639Z,40.99
2023-05-05T06:35:26.649Z,41.04
2023-05-05T06:36:25.672Z,40.95
2023-05-05T06:37:25.650Z,40.80
2023-05-05T06:38:25.975Z,40.54
2023-05-05T06:39:26.773Z,40.57
2023-05-05T06:40:25.673Z,40.79
2023-05-05T06:41:25.598Z,40.70
2023-05-05T06:42:25.698Z,40.57
2023-05-05T06:43:26.628Z,40.46
2023-05-05T06:44:26.587Z,40.44
2023-05-05T06:45:25.642Z,40.45
2023-05-05T06:46:25.615Z,40.46
2023-05-05T06:47:26.669Z,40.58
2023-05-05T06:48:25.758Z,40.48
2023-05-05T06:49:25.554Z,40.33
2023-05-05T06:50:25.580Z,40.40
2023-05-05T06:51:25.621Z,40.34
2023-05-05T06:52:26.076Z,40.22
2023-05-05T06:53:26.504Z,40.02
2023-05-05T06:54:26.558Z,40.07
2023-05-05T06:55:26.583Z,40.13
2023-05-05T06:56:25.515Z,40.06
2023-05-05T06:57:26.920Z,39.95
2023-05-05T06:58:25.484Z,39.88
2023-05-05T06:59:25.592Z,39.92
2023-05-05T07:00:25.640Z,40.00
2023-05-05T07:01:26.816Z,39.96
2023-05-05T07:02:26.863Z,40.01
2023-05-05T07:03:25.750Z,40.09
2023-05-05T07:04:25.880Z,39.89
2023-05-05T07:05:25.896Z,39.70
2023-05-05T07:06:25.903Z,39.72
2023-05-05T07:07:26.025Z,39.74
2023-05-05T07:08:26.031Z,39.73
2023-05-05T07:09:26.097Z,39.64
2023-05-05T07:10:26.183Z,39.47
2023-05-05T07:11:27.257Z,39.52
2023-05-05T07:12:26.389Z,39.49
2023-05-05T07:13:26.407Z,39.51
2023-05-05T07:14:27.453Z,39.35
2023-05-05T07:15:29.669Z,39.42
2023-05-05T07:16:27.538Z,39.28
2023-05-05T07:17:26.523Z,39.37
2023-05-05T07:18:27.378Z,39.42
2023-05-05T07:19:26.423Z,39.36
2023-05-05T07:20:27.560Z,39.38
2023-05-05T07:21:27.367Z,39.37
2023-05-05T07:22:27.397Z,39.32
2023-05-05T07:23:26.386Z,39.33
2023-05-05T07:24:26.365Z,39.35
2023-05-05T07:25:26.385Z,39.32
2023-05-05T07:26:26.331Z,39.35
2023-05-05T07:27:27.345Z,39.42
2023-05-05T07:28:27.378Z,39.44
2023-05-05T07:29:26.319Z,39.43
2023-05-05T07:30:26.507Z,39.35
2023-05-05T07:31:27.373Z,39.24
2023-05-05T07:32:26.335Z,39.26
2023-05-05T07:33:26.285Z,39.26
2023-05-05T07:34:27.278Z,39.34
2023-05-05T07:35:26.366Z,39.22
2023-05-05T07:36:26.430Z,39.22
2023-05-05T07:37:26.265Z,38.99
2023-05-05T07:38:26.313Z,38.78
2023-05-05T07:39:26.342Z,38.73
2023-05-05T07:40:26.465Z,38.70
2023-05-05T07:41:26.446Z,38.67
2023-05-05T07:42:27.480Z,38.76
2023-05-05T07:43:26.549Z,38.59
2023-05-05T07:44:26.547Z,38.51
2023-05-05T07:45:27.622Z,38.55
2023-05-05T07:46:26.695Z,38.49
2023-05-05T07:47:28.065Z,38.63
2023-05-05T07:48:27.695Z,38.40
2023-05-05T07:49:26.664Z,38.42
2023-05-05T07:50:26.779Z,38.59
2023-05-05T07:51:27.795Z,38.64
2023-05-05T07:52:43.643Z,38.76
2023-05-05T07:53:27.783Z,38.90
2023-05-05T07:54:26.909Z,39.03
2023-05-05T07:55:26.799Z,39.13
2023-05-05T07:56:26.744Z,39.26
2023-05-05T07:57:26.782Z,39.35
2023-05-05T07:58:27.781Z,39.46
2023-05-05T07:59:27.824Z,39.55
2023-05-05T08:00:26.776Z,39.63
2023-05-05T08:01:26.887Z,39.72
2023-05-05T08:02:26.897Z,39.78
2023-05-05T08:03:26.988Z,39.85
2023-05-05T08:04:26.798Z,39.91
2023-05-05T08:05:26.743Z,40.02
2023-05-05T08:06:26.738Z,39.99
2023-05-05T08:07:27.791Z,40.13
2023-05-05T08:08:27.048Z,40.24
2023-05-05T08:09:26.795Z,40.27
2023-05-05T08:10:27.850Z,40.41
2023-05-05T08:11:29.533Z,40.53
2023-05-05T08:12:26.907Z,40.61
2023-05-05T08:13:26.917Z,40.74
2023-05-05T08:14:27.918Z,40.76
2023-05-05T08:15:26.977Z,40.89
2023-05-05T08:16:26.979Z,40.97
2023-05-05T08:17:26.963Z,41.06
2023-05-05T08:18:26.863Z,41.21
2023-05-05T08:19:29.301Z,41.24
2023-05-05T08:20:26.861Z,41.36
2023-05-05T08:21:27.912Z,41.43
2023-05-05T08:22:26.846Z,41.49
2023-05-05T08:23:26.853Z,41.54
2023-05-05T08:24:26.958Z,41.66
2023-05-05T08:25:26.839Z,41.74
2023-05-05T08:26:27.835Z,41.79
2023-05-05T08:27:27.818Z,41.88
2023-05-05T08:28:26.842Z,41.93
2023-05-05T08:29:26.943Z,41.95
2023-05-05T08:30:26.796Z,42.06
2023-05-05T08:31:27.827Z,42.08
2023-05-05T08:32:29.719Z,42.17
2023-05-05T08:33:26.856Z,42.23
2023-05-05T08:34:27.831Z,42.33
2023-05-05T08:35:26.812Z,42.40
2023-05-05T08:36:27.763Z,42.45
2023-05-05T08:37:27.796Z,42.57
2023-05-05T08:38:26.760Z,42.56
2023-05-05T08:39:26.792Z,42.57
2023-05-05T08:40:26.962Z,42.58
2023-05-05T08:41:26.781Z,42.87
2023-05-05T08:42:37.159Z,42.69
2023-05-05T08:43:28.038Z,42.77
2023-05-05T08:44:26.716Z,42.69
2023-05-05T08:45:27.746Z,42.62
2023-05-05T08:46:27.782Z,42.53
2023-05-05T08:47:26.712Z,42.14
2023-05-05T08:48:26.787Z,40.89
2023-05-05T08:49:26.756Z,39.48
2023-05-05T08:50:26.739Z,38.81
2023-05-05T08:51:27.721Z,38.72
2023-05-05T08:52:26.726Z,38.55
2023-05-05T08:53:26.675Z,38.76
2023-05-05T08:54:26.655Z,38.74
2023-05-05T08:55:27.628Z,37.97
2023-05-05T08:56:27.757Z,38.84
2023-05-05T08:57:26.660Z,38.29
2023-05-05T08:58:29.046Z,38.44
2023-05-05T08:59:26.611Z,38.75
2023-05-05T09:00:27.700Z,38.65
2023-05-05T09:01:26.701Z,38.43
2023-05-05T09:02:26.854Z,38.14
2023-05-05T09:03:26.800Z,38.20
2023-05-05T09:04:26.747Z,38.38
2023-05-05T09:05:27.820Z,38.22
2023-05-05T09:06:26.920Z,38.25
2023-05-05T09:07:26.891Z,38.19
2023-05-05T09:08:28.072Z,38.38
2023-05-05T09:09:27.018Z,38.40
2023-05-05T09:10:30.101Z,38.41
2023-05-05T09:11:28.046Z,38.31
2023-05-05T09:12:28.214Z,38.44
2023-05-05T09:13:27.097Z,38.50
2023-05-05T09:14:27.062Z,38.39
2023-05-05T09:15:27.047Z,38.34
2023-05-05T09:16:27.074Z,38.31
2023-05-05T09:17:27.045Z,38.24
2023-05-05T09:18:28.113Z,38.11
2023-05-05T09:19:27.038Z,38.03
2023-05-05T09:20:27.025Z,37.80
2023-05-05T09:21:26.994Z,37.89
2023-05-05T09:22:28.029Z,37.77
2023-05-05T09:23:26.984Z,37.64
2023-05-05T09:24:26.991Z,37.71
2023-05-05T09:25:26.988Z,37.63
2023-05-05T09:26:27.970Z,37.65
2023-05-05T09:27:27.986Z,37.66
2023-05-05T09:28:27.980Z,37.83
2023-05-05T09:29:27.984Z,37.99
2023-05-05T09:30:26.929Z,38.07
2023-05-05T09:31:26.957Z,38.25
2023-05-05T09:32:30.435Z,38.27
2023-05-05T09:33:27.005Z,38.34
2023-05-05T09:34:26.954Z,38.36
2023-05-05T09:35:26.978Z,38.23
2023-05-05T09:36:26.976Z,38.33
2023-05-05T09:37:26.945Z,38.39
2023-05-05T09:38:26.997Z,38.29
2023-05-05T09:39:26.873Z,38.29
2023-05-05T09:40:26.877Z,38.36
2023-05-05T09:41:26.903Z,38.61
2023-05-05T09:42:26.923Z,38.73
2023-05-05T09:43:26.894Z,38.77
2023-05-05T09:44:26.979Z,38.90
2023-05-05T09:45:26.892Z,39.00
2023-05-05T09:46:26.835Z,39.05
2023-05-05T09:47:29.853Z,39.14
2023-05-05T09:48:26.904Z,39.16
2023-05-05T09:49:27.490Z,39.19
2023-05-05T09:50:26.845Z,39.39
2023-05-05T09:51:26.833Z,39.74
2023-05-05T09:52:26.833Z,39.70
2023-05-05T09:53:28.152Z,39.79
